SUCCESS DAM (SCC)

Elevation: 692' · TULE R basin · Operator: US Army Corps of Engineers

Provisional data, subject to change.
Query executed Friday at 2:38:04   clock

Select a sensor type for a plot of data.
Note: Reservoir Flows are daily averages.

Earlier

Date RES ELE    STORAGE    RES CHG    TOC STO    ABV TOC    OUTFLOW    INFLOW    FNF    PPT INC    PPTINC4    TEMP MN    TEMP MX    WINDLEN    EVP PAN   
 FEET   AF   AF   AF   AF   CFS   CFS   CFS   INCHES   INCHES   DEG F   DEG F   MILES   INCHES  
08/20/2014 588.58 7158 -249 82300 -75142 114 -8 -8 0.00 0.00 16 34 61 0.26
08/21/2014 587.95 6907 -251 82300 -75393 113 -10 -10 0.00 0.00 18 36 56 0.27
08/22/2014 587.33 6666 -241 82300 -75634 111 -7 -7 0.00 0.00 20 37 68 0.28
08/23/2014 586.70 6428 -238 82300 -75872 110 -7 -7 0.00 0.00 18 35 63 0.26
08/24/2014 586.09 6202 -226 82300 -76098 106 -5 -5 0.00 0.00 18 35 63 0.26
08/25/2014 585.50 5990 -212 82300 -76310 99 -4 -4 0.00 0.00 17 34 69 0.26
08/26/2014 584.94 5793 -197 82300 -76507 96 -0 0 0.00 0.00 15 33 59 0.25
08/27/2014 584.39 5603 -190 82300 -76697 92 -1 -1 0.00 0.00 20 37 66 0.28
08/28/2014 583.84 5418 -- 82300 -- 91 1 1 0.00 0.00 19 39 60 0.28
08/29/2014 583.73 5382 -36 82300 -76918 12 -3 -3 0.00 0.00 18 38 65 0.26
08/30/2014 583.69 5369 -13 82300 -76931 8 4 4 0.00 0.00 18 37 56 0.25
08/31/2014 583.65 5356 -13 82300 -76944 8 4 4 0.00 0.00 17 37 59 0.26
09/01/2014 583.60 5339 -17 81313 -75974 10 5 5 0.00 0.00 18 37 56 0.25
09/02/2014 583.51 5310 -29 80326 -75016 14 3 3 0.00 0.00 22 38 65 0.27
09/03/2014 583.40 5274 -36 79339 -74065 20 5 5 0.00 0.00 18 36 58 0.25
09/04/2014 583.15 5193 -81 78353 -73160 40 2 2 0.00 0.00 17 37 52 0.24
09/05/2014 582.84 5093 -100 77366 -72273 45 -2 -2 0.00 0.00 18 38 57 0.25
09/06/2014 582.55 5001 -92 76379 -71378 43 -1 -1 0.00 0.00 18 38 58 0.25
09/07/2014 582.27 4914 -87 75392 -70478 40 -1 -1 0.00 0.00 17 38 51 0.23
09/08/2014 582.01 4833 -81 74405 -69572 38 -1 -1 0.00 0.00 21 34 53 0.17
09/09/2014 581.76 4757 -76 73418 -68661 36 0 0 0.00 0.00 15 34 58 0.23
09/10/2014 581.51 4681 -76 72432 -67751 36 0 0 0.00 0.00 18 37 55 0.24
09/11/2014 581.26 4606 -75 71445 -66839 36 0 0 0.00 0.00 -15 38 59 0.24
09/12/2014 581.10 4559 -47 70458 -65899 20 -1 -1 0.00 0.00 20 39 55 0.24
09/13/2014 581.01 4532 -27 69471 -64939 12 2 2 0.00 0.00 21 42 57 0.25
09/14/2014 580.92 4506 -26 68484 -63978 10 -1 -1 0.00 0.00 22 40 52 0.23
09/15/2014 580.83 4479 -27 67497 -63018 13 2 -- 0.00 0.00 21 41 52 0.23
09/16/2014 580.72 4447 -32 66511 -62064 14 0 -- 0.00 0.00 21 36 62 0.23
09/17/2014 580.61 4415 -32 65524 -61109 13 -0 -- 0.00 0.00 20 38 59 0.23
09/18/2014 -- -- -- 64537 -- -- -- -- -- 0.00 -- -- -- --
09/19/2014 -- -- -- -- -- -- -- -- -- -- -- -- -- --

Later | Latest

Warning! This data is preliminary and subject to revision.

Download Data Now Download Data Now | Show SCC Map | Plot SCC Data | 1 Month SCC Data | Real-Time SCC Data | SCC Info